Time;durP1;ratioP1;P1;durP2;ratioP2;P2;SDS_P1;SDS_P2;PMS_P1;PMS_P2;Temp;Humidity;BMP_temperature;BMP_pressure;BME280_temperature;BME280_humidity;BME280_pressure;Samples;Min_cycle;Max_cycle;Signal;HPM_P1;HPM_P2
2021/08/11 00:00:20;;;;;;;2.72;2.53;;;21.40;62.60;;;;;;5111361;28;20193;-61
2021/08/11 00:02:46;;;;;;;3.10;2.83;;;21.40;62.60;;;;;;5112392;28;20201;-60
2021/08/11 00:05:11;;;;;;;3.30;3.00;;;21.40;62.60;;;;;;5112518;28;20167;-61
2021/08/11 00:07:37;;;;;;;3.20;2.97;;;21.40;62.60;;;;;;5111276;28;20191;-61
2021/08/11 00:10:03;;;;;;;4.35;2.50;;;21.40;62.60;;;;;;5112073;28;20296;-61
2021/08/11 00:12:29;;;;;;;3.90;3.22;;;21.40;62.60;;;;;;5111747;28;20169;-61
2021/08/11 00:14:54;;;;;;;2.78;2.55;;;21.40;62.50;;;;;;5111386;28;20462;-60
2021/08/11 00:17:20;;;;;;;3.80;3.17;;;21.40;62.60;;;;;;5112133;28;20199;-60
2021/08/11 00:19:46;;;;;;;3.25;2.95;;;21.40;62.50;;;;;;5112236;28;20184;-60
2021/08/11 00:22:11;;;;;;;3.35;3.05;;;21.40;62.50;;;;;;5111182;28;20250;-60
2021/08/11 00:24:37;;;;;;;3.65;3.30;;;21.40;62.50;;;;;;5111748;28;20173;-60
2021/08/11 00:27:02;;;;;;;3.17;2.88;;;21.40;62.50;;;;;;5112177;28;20257;-61
2021/08/11 00:29:28;;;;;;;3.25;2.90;;;21.40;62.50;;;;;;5111067;28;20777;-61
2021/08/11 00:31:54;;;;;;;4.38;2.97;;;21.40;62.50;;;;;;5112184;28;20255;-62
2021/08/11 00:34:19;;;;;;;3.28;2.95;;;21.40;62.50;;;;;;5111676;28;20181;-62
2021/08/11 00:36:44;;;;;;;3.90;2.92;;;21.40;62.40;;;;;;5111487;28;20176;-61
2021/08/11 00:39:10;;;;;;;3.20;2.78;;;21.40;62.40;;;;;;5112002;28;20176;-61
2021/08/11 00:41:36;;;;;;;3.20;2.85;;;21.30;62.30;;;;;;5111539;28;20176;-61
2021/08/11 00:44:02;;;;;;;3.65;3.30;;;21.30;62.20;;;;;;5093387;28;20181;-62
2021/08/11 00:46:27;;;;;;;3.17;2.88;;;21.30;62.20;;;;;;5111671;28;20179;-62
2021/08/11 00:48:53;;;;;;;3.55;3.25;;;21.30;62.20;;;;;;5093655;28;20292;-61
2021/08/11 00:51:18;;;;;;;3.17;2.80;;;21.30;62.20;;;;;;5075849;28;20222;-61
2021/08/11 00:53:44;;;;;;;5.25;3.03;;;21.30;62.20;;;;;;5111892;28;20230;-61
2021/08/11 00:56:10;;;;;;;3.00;2.80;;;21.30;62.20;;;;;;5093899;28;20184;-62
2021/08/11 00:58:36;;;;;;;5.43;3.03;;;21.30;62.20;;;;;;5075467;28;20530;-61
2021/08/11 01:01:01;;;;;;;2.95;2.75;;;21.30;62.20;;;;;;5093420;28;20223;-61
2021/08/11 01:03:27;;;;;;;3.28;2.97;;;21.30;62.20;;;;;;5111210;28;20573;-61
2021/08/11 01:05:53;;;;;;;3.00;2.70;;;21.30;62.10;;;;;;5092852;28;20194;-61
2021/08/11 01:08:19;;;;;;;2.97;2.67;;;21.30;62.20;;;;;;5111289;28;20260;-61
2021/08/11 01:10:50;;;;;;;3.83;3.40;;;21.30;62.10;;;;;;5110989;28;20256;-61
2021/08/11 01:13:16;;;;;;;3.28;2.97;;;21.30;62.10;;;;;;5113835;28;20173;-61
2021/08/11 01:15:47;;;;;;;3.15;2.95;;;21.30;62.10;;;;;;5115470;28;20251;-61
2021/08/11 01:18:14;;;;;;;4.22;3.00;;;21.20;62.00;;;;;;5114727;28;20177;-60
2021/08/11 01:20:45;;;;;;;3.30;2.83;;;21.30;62.10;;;;;;5114955;28;20177;-60
2021/08/11 01:23:11;;;;;;;5.65;3.22;;;21.20;62.00;;;;;;5096866;28;20623;-60
2021/08/11 01:25:40;;;;;;;4.60;3.38;;;21.20;62.00;;;;;;5096014;28;20191;-60
2021/08/11 01:28:27;;;;;;;3.72;2.95;;;21.20;62.00;;;;;;5080508;28;20181;-60
2021/08/11 01:31:11;;;;;;;3.78;3.40;;;21.20;61.90;;;;;;5096728;28;20639;-61
2021/08/11 01:33:38;;;;;;;3.20;2.90;;;21.20;61.90;;;;;;5113950;28;20639;-61
2021/08/11 01:36:09;;;;;;;4.35;2.88;;;21.20;61.90;;;;;;5115213;28;20176;-61
2021/08/11 01:38:34;;;;;;;3.45;3.15;;;21.20;62.00;;;;;;5097137;28;20195;-62
2021/08/11 01:41:01;;;;;;;3.95;2.97;;;21.20;61.90;;;;;;5114278;28;20169;-61
2021/08/11 01:43:28;;;;;;;3.08;2.65;;;21.20;61.90;;;;;;5096453;28;20573;-61
2021/08/11 01:45:55;;;;;;;3.22;2.95;;;21.20;61.80;;;;;;5079304;28;20635;-61
2021/08/11 01:48:26;;;;;;;3.55;3.25;;;21.20;61.90;;;;;;5114316;28;20173;-61
2021/08/11 01:50:51;;;;;;;3.10;2.80;;;21.20;61.80;;;;;;5097110;28;20177;-61
2021/08/11 01:53:18;;;;;;;3.35;3.08;;;21.20;61.80;;;;;;5113567;28;20169;-61
2021/08/11 01:55:54;;;;;;;3.35;3.05;;;21.20;61.80;;;;;;5114535;28;20176;-61
2021/08/11 01:58:29;;;;;;;3.45;3.15;;;21.20;61.80;;;;;;5097356;28;20169;-62
2021/08/11 02:00:57;;;;;;;2.72;2.53;;;21.20;61.80;;;;;;5113876;28;20169;-62
2021/08/11 02:03:23;;;;;;;3.00;2.70;;;21.20;61.80;;;;;;5095805;28;20169;-62
2021/08/11 02:05:52;;;;;;;2.92;2.72;;;21.20;61.80;;;;;;5079683;28;20229;-62
2021/08/11 02:08:19;;;;;;;2.92;2.72;;;21.10;61.70;;;;;;5113343;28;20226;-62
2021/08/11 02:10:45;;;;;;;3.22;2.92;;;21.10;61.70;;;;;;5079093;28;20643;-62
2021/08/11 02:13:10;;;;;;;2.85;2.65;;;21.10;61.70;;;;;;5113991;28;20176;-62
2021/08/11 02:15:36;;;;;;;3.10;2.80;;;21.10;61.60;;;;;;5094916;28;20173;-62
2021/08/11 02:18:02;;;;;;;3.70;3.00;;;21.10;61.50;;;;;;5113859;28;20165;-62
2021/08/11 02:20:28;;;;;;;3.25;3.05;;;21.10;61.60;;;;;;5113868;28;20180;-61
2021/08/11 02:22:53;;;;;;;3.88;3.17;;;21.10;61.50;;;;;;5113002;28;20225;-61
2021/08/11 02:25:19;;;;;;;4.32;3.00;;;21.10;61.50;;;;;;5112354;28;20169;-61
2021/08/11 02:27:52;;;;;;;3.20;3.00;;;21.10;61.50;;;;;;5113702;28;20490;-61
2021/08/11 02:30:20;;;;;;;3.10;2.85;;;21.10;61.50;;;;;;5078373;28;20220;-62
2021/08/11 02:32:54;;;;;;;4.30;3.10;;;21.10;61.50;;;;;;5095312;28;20515;-62
2021/08/11 02:35:33;;;;;;;3.47;3.17;;;21.10;61.50;;;;;;5078031;28;20183;-62
2021/08/11 02:38:11;;;;;;;4.03;2.90;;;21.10;61.50;;;;;;5078787;28;20196;-62
2021/08/11 02:40:38;;;;;;;2.83;2.63;;;21.10;61.50;;;;;;5113138;28;20202;-62
2021/08/11 02:43:14;;;;;;;3.40;3.10;;;21.10;61.50;;;;;;5094621;28;20173;-62
2021/08/11 02:45:40;;;;;;;4.22;3.08;;;21.10;61.50;;;;;;5079359;28;20229;-62
2021/08/11 02:48:05;;;;;;;3.40;3.05;;;21.00;61.40;;;;;;5078404;28;20177;-62
2021/08/11 02:50:31;;;;;;;3.00;2.78;;;21.10;61.40;;;;;;5094198;28;20213;-62
2021/08/11 02:52:56;;;;;;;3.13;2.67;;;21.00;61.40;;;;;;5113165;28;20176;-61
2021/08/11 02:55:22;;;;;;;3.30;3.00;;;21.00;61.40;;;;;;5078090;28;20199;-61
2021/08/11 02:57:47;;;;;;;3.95;3.13;;;21.00;61.30;;;;;;5094403;28;20197;-62
2021/08/11 03:00:13;;;;;;;3.75;3.08;;;21.00;61.40;;;;;;5095141;28;20169;-61
2021/08/11 03:02:38;;;;;;;3.28;2.97;;;21.00;61.60;;;;;;5094660;28;20173;-62
2021/08/11 03:05:05;;;;;;;3.63;3.10;;;21.00;61.40;;;;;;5094052;28;20619;-62
2021/08/11 03:07:30;;;;;;;3.25;2.95;;;21.00;61.50;;;;;;5112708;28;20173;-61
2021/08/11 03:09:56;;;;;;;3.63;3.28;;;21.00;61.40;;;;;;5094825;28;20217;-61
2021/08/11 03:12:21;;;;;;;3.75;3.45;;;21.00;61.40;;;;;;5111946;28;20242;-61
2021/08/11 03:14:48;;;;;;;3.78;3.17;;;21.00;61.40;;;;;;5077819;28;20624;-61
2021/08/11 03:17:14;;;;;;;3.30;3.05;;;21.00;61.40;;;;;;5112175;28;20173;-61
2021/08/11 03:19:39;;;;;;;3.40;3.10;;;21.00;61.40;;;;;;5112464;28;20691;-61
2021/08/11 03:22:08;;;;;;;2.78;2.53;;;21.00;61.40;;;;;;5112545;28;20228;-61
2021/08/11 03:24:33;;;;;;;4.13;3.38;;;20.90;61.20;;;;;;5111801;28;20234;-61
2021/08/11 03:26:59;;;;;;;5.55;3.22;;;21.00;61.30;;;;;;5113047;28;20173;-61
2021/08/11 03:29:24;;;;;;;3.08;2.78;;;21.00;61.30;;;;;;5112308;28;20208;-61
2021/08/11 03:31:50;;;;;;;3.63;3.10;;;20.90;61.20;;;;;;5111872;28;20177;-62
2021/08/11 03:34:15;;;;;;;3.50;3.20;;;20.90;61.30;;;;;;5112402;28;20173;-62
2021/08/11 03:36:43;;;;;;;3.45;3.15;;;21.00;61.30;;;;;;5112077;28;20187;-62
2021/08/11 03:39:09;;;;;;;3.60;3.22;;;20.90;61.20;;;;;;5112018;28;20192;-62
2021/08/11 03:41:34;;;;;;;4.38;3.40;;;20.90;61.30;;;;;;5112227;28;20619;-61
2021/08/11 03:44:00;;;;;;;6.78;3.88;;;20.90;61.40;;;;;;5112468;28;20302;-61
2021/08/11 03:46:25;;;;;;;3.50;3.20;;;20.90;61.40;;;;;;5111454;28;20249;-62
2021/08/11 03:48:51;;;;;;;4.50;3.38;;;20.90;61.40;;;;;;5112147;28;20253;-61
2021/08/11 03:51:16;;;;;;;3.05;2.75;;;20.90;61.40;;;;;;5111947;28;20180;-61
2021/08/11 03:53:42;;;;;;;3.30;3.00;;;20.90;61.30;;;;;;5111724;28;20627;-61
2021/08/11 03:56:07;;;;;;;4.25;3.17;;;20.90;61.30;;;;;;5112209;28;20701;-61
2021/08/11 03:58:34;;;;;;;3.42;3.10;;;20.90;61.40;;;;;;5112027;28;20628;-62
2021/08/11 04:00:59;;;;;;;3.45;2.95;;;20.90;61.40;;;;;;5111452;28;20216;-60
2021/08/11 04:03:25;;;;;;;3.60;3.15;;;20.90;61.40;;;;;;5111798;28;20234;-61
2021/08/11 04:05:50;;;;;;;3.50;3.20;;;20.90;61.40;;;;;;5112419;28;20193;-61
2021/08/11 04:08:16;;;;;;;3.35;3.08;;;20.90;61.40;;;;;;5111036;28;20523;-62
2021/08/11 04:10:45;;;;;;;4.05;3.65;;;20.90;61.50;;;;;;5112155;28;20287;-62
2021/08/11 04:13:18;;;;;;;3.60;3.20;;;20.90;61.40;;;;;;5112092;28;20624;-61
2021/08/11 04:15:44;;;;;;;4.47;3.45;;;20.90;61.60;;;;;;5111603;28;20177;-62
2021/08/11 04:18:10;;;;;;;3.50;3.20;;;20.90;61.60;;;;;;5112115;28;20165;-61
2021/08/11 04:20:36;;;;;;;3.40;3.10;;;20.90;61.40;;;;;;5111193;28;20679;-61
2021/08/11 04:23:01;;;;;;;3.45;3.15;;;20.90;61.60;;;;;;5112247;28;20184;-61
2021/08/11 04:25:27;;;;;;;3.47;3.28;;;20.90;61.50;;;;;;5111902;28;20264;-61
2021/08/11 04:27:52;;;;;;;3.35;3.05;;;20.90;61.40;;;;;;5111504;28;20187;-61
2021/08/11 04:30:18;;;;;;;5.32;3.38;;;20.90;61.60;;;;;;5111776;28;20562;-63
2021/08/11 04:32:43;;;;;;;3.70;3.40;;;20.90;61.50;;;;;;5112049;28;20169;-62
2021/08/11 04:35:09;;;;;;;3.90;3.20;;;20.90;61.40;;;;;;5111353;28;20169;-63
2021/08/11 04:37:39;;;;;;;3.88;3.47;;;20.90;61.40;;;;;;5111910;28;20517;-62
2021/08/11 04:40:05;;;;;;;3.60;3.30;;;20.80;61.50;;;;;;5112218;28;20260;-62
2021/08/11 04:42:31;;;;;;;3.40;2.97;;;20.90;61.60;;;;;;5110919;28;20346;-62
2021/08/11 04:44:56;;;;;;;3.85;3.53;;;20.80;62.10;;;;;;5111896;28;20275;-61
2021/08/11 04:47:22;;;;;;;3.55;3.25;;;20.80;61.60;;;;;;5112512;28;20184;-62
2021/08/11 04:49:47;;;;;;;3.58;3.20;;;20.80;61.60;;;;;;5115490;28;20223;-61
2021/08/11 04:52:13;;;;;;;3.35;3.05;;;20.80;61.70;;;;;;5115845;28;20181;-63
2021/08/11 04:54:38;;;;;;;3.67;3.38;;;20.90;61.70;;;;;;5115697;28;20173;-65
2021/08/11 04:57:05;;;;;;;3.75;3.03;;;20.80;61.70;;;;;;5115045;28;20198;-62
2021/08/11 04:59:30;;;;;;;3.33;2.83;;;20.80;61.70;;;;;;5115390;28;20520;-63
2021/08/11 05:01:56;;;;;;;4.68;3.00;;;20.80;61.70;;;;;;5115543;28;20180;-62
2021/08/11 05:04:21;;;;;;;4.13;3.30;;;20.80;61.70;;;;;;5114424;28;20181;-63
2021/08/11 05:06:47;;;;;;;3.67;3.25;;;20.80;61.70;;;;;;5115815;28;20169;-62
2021/08/11 05:09:12;;;;;;;3.80;3.28;;;20.80;61.80;;;;;;5115623;28;20204;-64
2021/08/11 05:11:38;;;;;;;5.38;3.75;;;20.80;61.70;;;;;;5114489;28;20173;-61
2021/08/11 05:14:04;;;;;;;3.55;3.25;;;20.80;61.80;;;;;;5115452;28;20192;-61
2021/08/11 05:16:29;;;;;;;3.65;3.25;;;20.80;61.70;;;;;;5115065;28;20177;-61
2021/08/11 05:18:55;;;;;;;3.85;3.22;;;20.80;61.80;;;;;;5114851;28;20184;-61
2021/08/11 05:21:22;;;;;;;4.85;3.75;;;20.80;61.70;;;;;;5115047;28;20221;-61
2021/08/11 05:23:47;;;;;;;3.55;3.25;;;20.80;61.70;;;;;;5114717;28;20173;-61
2021/08/11 05:26:13;;;;;;;3.50;3.20;;;20.90;61.80;;;;;;5115132;28;20177;-61
2021/08/11 05:28:38;;;;;;;4.30;3.85;;;20.90;61.80;;;;;;5114833;28;20169;-62
2021/08/11 05:31:04;;;;;;;3.72;3.42;;;20.90;61.80;;;;;;5114387;28;20173;-62
2021/08/11 05:33:29;;;;;;;4.68;4.10;;;20.90;61.80;;;;;;5114869;28;20169;-63
2021/08/11 05:35:55;;;;;;;4.35;3.95;;;20.90;61.80;;;;;;5114833;28;20209;-62
2021/08/11 05:38:21;;;;;;;3.95;3.63;;;20.80;61.80;;;;;;5114012;28;20161;-62
2021/08/11 05:40:46;;;;;;;3.50;3.17;;;20.90;61.90;;;;;;5114880;28;20169;-61
2021/08/11 05:43:12;;;;;;;4.00;3.70;;;20.90;61.90;;;;;;5115120;28;20191;-62
2021/08/11 05:45:37;;;;;;;4.07;3.70;;;20.90;61.80;;;;;;5113815;28;20180;-62
2021/08/11 05:48:03;;;;;;;3.83;3.53;;;20.90;61.80;;;;;;5115082;28;20627;-61
2021/08/11 05:50:29;;;;;;;4.43;4.03;;;20.90;61.90;;;;;;5114612;28;20219;-62
2021/08/11 05:52:54;;;;;;;3.97;3.55;;;20.90;61.90;;;;;;5114103;28;20287;-62
2021/08/11 05:55:20;;;;;;;3.45;3.15;;;20.90;61.90;;;;;;5114602;28;20526;-62
2021/08/11 05:57:45;;;;;;;4.03;3.70;;;20.90;61.90;;;;;;5114595;28;20181;-62
2021/08/11 06:00:11;;;;;;;3.67;3.38;;;20.90;62.00;;;;;;5113837;28;20173;-62
2021/08/11 06:02:40;;;;;;;3.83;3.53;;;20.90;61.90;;;;;;5114594;28;20165;-62
2021/08/11 06:05:09;;;;;;;3.75;3.45;;;20.90;62.00;;;;;;5114844;28;20185;-62
2021/08/11 06:07:34;;;;;;;3.95;3.47;;;20.90;62.10;;;;;;5113914;28;20169;-62
2021/08/11 06:10:00;;;;;;;3.92;3.63;;;20.90;62.00;;;;;;5114483;28;20213;-62
2021/08/11 06:12:25;;;;;;;3.95;3.65;;;20.90;62.00;;;;;;5114300;28;20173;-63
2021/08/11 06:14:51;;;;;;;3.75;3.45;;;21.00;62.00;;;;;;5113658;28;20253;-61
2021/08/11 06:17:17;;;;;;;3.83;3.40;;;20.90;62.00;;;;;;5114103;28;20214;-62
2021/08/11 06:19:43;;;;;;;3.63;3.33;;;20.90;62.10;;;;;;5114694;28;20636;-65
2021/08/11 06:22:09;;;;;;;4.00;3.47;;;20.90;62.00;;;;;;5113400;28;20675;-61
2021/08/11 06:24:34;;;;;;;3.60;3.30;;;21.00;62.10;;;;;;5113977;28;20222;-61
2021/08/11 06:27:00;;;;;;;3.60;3.30;;;20.90;62.10;;;;;;5114190;28;20165;-61
2021/08/11 06:29:25;;;;;;;4.00;3.63;;;21.00;62.10;;;;;;5112959;28;20246;-62
2021/08/11 06:31:51;;;;;;;3.95;3.50;;;21.00;62.10;;;;;;5114134;28;20508;-62
2021/08/11 06:34:17;;;;;;;3.95;3.50;;;21.00;62.20;;;;;;5113210;28;20173;-62
2021/08/11 06:36:43;;;;;;;3.47;3.17;;;21.00;62.20;;;;;;5114217;28;20180;-62
2021/08/11 06:39:08;;;;;;;4.57;3.38;;;21.00;62.20;;;;;;5114095;28;20256;-61
2021/08/11 06:41:34;;;;;;;3.70;3.40;;;21.00;62.20;;;;;;5112596;28;20177;-61
2021/08/11 06:43:59;;;;;;;3.50;3.20;;;21.00;62.10;;;;;;5113527;28;20676;-62
2021/08/11 06:46:25;;;;;;;3.97;3.53;;;21.00;62.20;;;;;;5113579;28;20177;-61
2021/08/11 06:48:53;;;;;;;3.72;3.42;;;21.00;62.10;;;;;;5112859;28;20205;-60
2021/08/11 06:51:18;;;;;;;3.55;2.95;;;21.00;62.10;;;;;;5113326;28;20212;-61
2021/08/11 06:53:44;;;;;;;3.50;3.25;;;21.10;62.20;;;;;;5113509;28;20169;-61
2021/08/11 06:56:09;;;;;;;3.30;2.95;;;21.10;62.10;;;;;;5112733;28;20180;-61
2021/08/11 06:58:36;;;;;;;3.45;3.22;;;21.10;62.20;;;;;;5113141;28;20559;-61
2021/08/11 07:01:01;;;;;;;3.45;3.10;;;21.10;62.30;;;;;;5113519;28;20180;-61
2021/08/11 07:03:27;;;;;;;3.53;3.22;;;21.10;62.30;;;;;;5112591;28;20474;-61
2021/08/11 07:05:52;;;;;;;3.03;2.83;;;21.10;62.60;;;;;;5119584;27;20173;-60
2021/08/11 07:08:20;;;;;;;3.40;3.10;;;21.10;62.40;;;;;;5113927;27;20696;-61
2021/08/11 07:10:45;;;;;;;5.82;3.67;;;21.10;62.50;;;;;;5111737;28;20271;-61
2021/08/11 07:13:11;;;;;;;4.93;3.63;;;21.20;62.60;;;;;;5113114;28;20265;-61
2021/08/11 07:15:37;;;;;;;4.57;3.78;;;21.20;62.80;;;;;;5113100;28;20639;-62
2021/08/11 07:18:02;;;;;;;3.70;3.40;;;21.20;62.50;;;;;;5112683;28;20618;-62
2021/08/11 07:20:29;;;;;;;3.95;3.42;;;21.20;62.50;;;;;;5112922;28;20759;-61
2021/08/11 07:22:55;;;;;;;3.38;3.10;;;21.20;62.40;;;;;;5112835;28;20571;-61
2021/08/11 07:25:21;;;;;;;3.70;3.40;;;21.30;62.50;;;;;;5112052;28;20177;-63
2021/08/11 07:27:47;;;;;;;7.85;3.60;;;21.30;62.50;;;;;;5113074;28;20230;-62
2021/08/11 07:30:12;;;;;;;5.40;4.07;;;21.30;62.60;;;;;;5113207;28;20300;-63
2021/08/11 07:32:38;;;;;;;10.68;4.60;;;21.30;62.80;;;;;;5093948;28;20184;-62
2021/08/11 07:35:07;;;;;;;7.38;3.78;;;21.30;62.90;;;;;;5113036;28;20177;-62
2021/08/11 07:37:32;;;;;;;4.00;3.60;;;21.40;62.80;;;;;;5111719;28;20177;-62
2021/08/11 07:39:58;;;;;;;7.47;3.85;;;21.40;62.90;;;;;;5112493;28;20192;-62
2021/08/11 07:42:23;;;;;;;4.82;3.70;;;21.40;62.90;;;;;;5111591;28;20172;-61
2021/08/11 07:44:49;;;;;;;6.00;3.65;;;21.40;63.00;;;;;;5112101;28;20173;-61
2021/08/11 07:47:14;;;;;;;8.95;4.43;;;21.40;63.10;;;;;;5112992;28;20222;-61
2021/08/11 07:49:40;;;;;;;6.20;3.50;;;21.40;63.00;;;;;;5112128;28;20215;-61
2021/08/11 07:52:05;;;;;;;5.57;4.05;;;21.40;63.10;;;;;;5111804;28;20729;-62
2021/08/11 07:54:31;;;;;;;5.00;3.65;;;21.40;63.00;;;;;;5112388;28;20268;-62
2021/08/11 07:56:56;;;;;;;5.43;3.55;;;21.50;63.10;;;;;;5112435;28;20162;-62
2021/08/11 07:59:22;;;;;;;6.78;3.88;;;21.50;63.20;;;;;;5111674;28;20651;-63
2021/08/11 08:01:47;;;;;;;5.88;3.40;;;21.50;63.10;;;;;;5112432;28;20230;-62
2021/08/11 08:04:13;;;;;;;5.88;3.90;;;21.50;63.10;;;;;;5112292;28;20569;-63
2021/08/11 08:06:39;;;;;;;4.25;3.15;;;21.50;63.20;;;;;;5111208;28;20181;-62
2021/08/11 08:09:04;;;;;;;4.50;3.13;;;21.60;63.30;;;;;;5112137;28;20313;-62
2021/08/11 08:11:29;;;;;;;7.88;3.42;;;21.50;63.20;;;;;;5111878;28;20623;-62
2021/08/11 08:13:55;;;;;;;11.05;3.70;;;21.60;63.40;;;;;;5111542;28;20185;-62
2021/08/11 08:16:21;;;;;;;5.88;3.40;;;21.60;63.30;;;;;;5112020;28;20184;-63
2021/08/11 08:18:46;;;;;;;6.68;3.55;;;21.60;63.30;;;;;;5112176;28;20173;-61
2021/08/11 08:21:12;;;;;;;4.88;3.30;;;21.60;63.40;;;;;;5112142;28;20224;-65
2021/08/11 08:23:38;;;;;;;5.40;4.03;;;21.60;63.30;;;;;;5116263;28;20642;-61
2021/08/11 08:26:04;;;;;;;4.88;3.58;;;21.60;63.40;;;;;;5116350;28;20175;-62
2021/08/11 08:28:29;;;;;;;4.50;3.55;;;21.70;63.40;;;;;;5115581;28;20180;-62
2021/08/11 08:30:55;;;;;;;5.03;3.65;;;21.70;63.40;;;;;;5115719;28;20228;-63
2021/08/11 08:33:20;;;;;;;4.18;3.40;;;21.70;63.40;;;;;;5115918;28;20172;-63
2021/08/11 08:35:46;;;;;;;5.85;3.45;;;21.70;63.40;;;;;;5115507;28;20199;-62
2021/08/11 08:38:13;;;;;;;5.22;4.10;;;21.70;63.50;;;;;;5116176;28;20655;-65
2021/08/11 08:40:38;;;;;;;4.93;3.53;;;21.70;63.50;;;;;;5115869;28;20176;-63
2021/08/11 08:43:04;;;;;;;5.10;3.20;;;21.70;63.40;;;;;;5115575;28;20233;-62
2021/08/11 08:45:30;;;;;;;4.60;4.00;;;21.70;63.40;;;;;;5097604;28;20225;-62
2021/08/11 08:47:56;;;;;;;4.50;3.10;;;21.70;63.40;;;;;;5115173;28;20565;-61
2021/08/11 08:50:21;;;;;;;3.45;3.20;;;21.80;63.50;;;;;;5097428;28;20300;-62
2021/08/11 08:52:47;;;;;;;5.53;3.30;;;21.70;63.40;;;;;;5115771;28;20569;-63
2021/08/11 08:55:13;;;;;;;4.38;3.40;;;21.70;63.50;;;;;;5097017;28;20188;-62
2021/08/11 08:57:38;;;;;;;4.00;3.50;;;21.70;63.60;;;;;;5115678;28;20169;-63
2021/08/11 09:00:05;;;;;;;3.50;3.17;;;21.70;63.60;;;;;;5115603;28;20302;-62
2021/08/11 09:02:31;;;;;;;4.45;3.08;;;21.70;63.60;;;;;;5114556;28;20170;-62
2021/08/11 09:04:56;;;;;;;4.10;3.20;;;21.80;63.70;;;;;;5115724;28;20169;-63
2021/08/11 09:07:22;;;;;;;4.63;3.42;;;21.80;63.60;;;;;;5115057;28;20479;-62
2021/08/11 09:09:47;;;;;;;4.63;2.92;;;21.70;63.60;;;;;;5114828;28;20196;-62
2021/08/11 09:12:14;;;;;;;3.90;3.53;;;21.70;63.80;;;;;;5115663;28;20198;-62
2021/08/11 09:14:44;;;;;;;4.28;3.35;;;21.70;63.90;;;;;;5115026;28;20698;-62
2021/08/11 09:17:10;;;;;;;3.92;3.20;;;21.70;63.90;;;;;;5114605;28;20215;-62
2021/08/11 09:19:44;;;;;;;4.50;3.30;;;21.70;63.90;;;;;;5114910;28;20204;-62
2021/08/11 09:22:11;;;;;;;3.65;3.10;;;21.70;63.90;;;;;;5114752;28;20724;-62
2021/08/11 09:24:37;;;;;;;4.10;2.97;;;21.70;63.90;;;;;;5114231;28;20181;-61
2021/08/11 09:27:20;;;;;;;4.60;3.30;;;21.70;63.90;;;;;;5115054;28;20646;-61
2021/08/11 09:30:07;;;;;;;4.43;3.40;;;21.80;63.90;;;;;;5115158;28;20275;-63
2021/08/11 09:32:52;;;;;;;5.15;3.08;;;21.80;63.70;;;;;;5114786;28;20314;-63
2021/08/11 09:35:38;;;;;;;3.67;3.05;;;21.80;63.70;;;;;;5114995;28;20176;-64
2021/08/11 09:38:11;;;;;;;3.08;2.78;;;21.90;63.70;;;;;;5114461;28;20165;-63
2021/08/11 09:40:37;;;;;;;2.92;2.65;;;21.90;63.70;;;;;;5097313;28;20254;-63
2021/08/11 09:43:04;;;;;;;4.32;3.38;;;21.90;63.50;;;;;;5115231;28;20291;-63
2021/08/11 09:45:46;;;;;;;3.63;3.25;;;22.00;63.50;;;;;;5114413;28;20177;-62
2021/08/11 09:48:12;;;;;;;4.28;3.17;;;22.00;63.50;;;;;;5114912;28;20179;-62
2021/08/11 09:50:47;;;;;;;4.07;3.00;;;22.00;63.60;;;;;;5114417;28;20217;-62
2021/08/11 09:53:15;;;;;;;3.28;2.80;;;22.00;63.40;;;;;;5113931;28;20181;-63
2021/08/11 09:56:01;;;;;;;3.88;2.85;;;22.10;63.40;;;;;;5114356;28;20180;-62
2021/08/11 09:58:28;;;;;;;4.25;3.10;;;22.10;63.30;;;;;;5113872;28;20277;-64
2021/08/11 10:00:54;;;;;;;4.25;2.97;;;22.10;63.40;;;;;;5114733;28;20173;-62
2021/08/11 10:03:19;;;;;;;4.82;3.20;;;22.10;63.40;;;;;;5095819;28;20177;-62
2021/08/11 10:05:45;;;;;;;3.45;2.97;;;22.00;63.50;;;;;;5095650;28;20172;-62
2021/08/11 10:08:10;;;;;;;3.05;2.70;;;22.00;63.60;;;;;;5114387;28;20260;-62
2021/08/11 10:10:48;;;;;;;4.55;2.75;;;22.00;63.60;;;;;;5114429;28;20748;-62
2021/08/11 10:13:16;;;;;;;4.15;2.90;;;22.00;63.50;;;;;;5114003;28;20196;-62
2021/08/11 10:15:41;;;;;;;3.50;3.00;;;22.00;63.60;;;;;;5114412;28;20646;-61
2021/08/11 10:18:07;;;;;;;4.18;2.70;;;22.10;63.40;;;;;;5114450;28;20173;-61
2021/08/11 10:20:32;;;;;;;3.35;2.58;;;22.10;63.20;;;;;;5094906;28;20648;-60
2021/08/11 10:22:58;;;;;;;3.25;2.95;;;22.20;63.30;;;;;;5095561;28;20301;-61
2021/08/11 10:25:23;;;;;;;3.47;2.92;;;22.10;63.40;;;;;;5095463;28;20684;-60
2021/08/11 10:27:49;;;;;;;3.55;2.55;;;22.20;63.40;;;;;;5113378;28;20254;-61
2021/08/11 10:30:15;;;;;;;3.25;2.95;;;22.20;63.20;;;;;;5114214;28;20324;-64
2021/08/11 10:32:41;;;;;;;3.17;2.83;;;22.30;64.00;;;;;;5095716;28;20197;-62
2021/08/11 10:35:06;;;;;;;4.15;3.28;;;22.30;63.00;;;;;;5112994;28;20178;-61
2021/08/11 10:37:35;;;;;;;3.85;3.08;;;22.40;62.90;;;;;;5095422;28;20165;-62
2021/08/11 10:40:05;;;;;;;3.00;2.70;;;22.30;62.90;;;;;;5078805;28;20173;-62
2021/08/11 10:42:30;;;;;;;2.80;2.58;;;22.30;63.10;;;;;;5112720;28;20690;-62
2021/08/11 10:44:59;;;;;;;3.53;2.70;;;22.30;63.00;;;;;;5094604;28;20195;-62
2021/08/11 10:47:35;;;;;;;3.47;2.80;;;22.30;63.20;;;;;;5112440;28;20216;-62
2021/08/11 10:50:05;;;;;;;3.60;2.83;;;22.30;63.10;;;;;;5113486;28;20750;-61
2021/08/11 10:52:31;;;;;;;3.60;3.30;;;22.40;63.10;;;;;;5113278;28;20173;-62
2021/08/11 10:55:04;;;;;;;3.25;2.67;;;22.50;62.80;;;;;;5094666;28;20170;-62
2021/08/11 10:57:40;;;;;;;4.32;2.90;;;22.40;62.80;;;;;;5113433;28;20256;-64
2021/08/11 11:00:21;;;;;;;7.55;3.50;;;22.30;63.00;;;;;;5113227;28;20188;-62
2021/08/11 11:02:48;;;;;;;4.78;2.83;;;22.30;63.30;;;;;;5112742;28;20300;-62
2021/08/11 11:05:19;;;;;;;5.60;3.58;;;22.20;63.50;;;;;;5113551;28;20185;-63
2021/08/11 11:08:08;;;;;;;3.25;2.95;;;22.30;63.60;;;;;;5113247;28;20173;-63
2021/08/11 11:10:35;;;;;;;6.70;3.42;;;22.40;63.30;;;;;;5111958;28;20205;-62
2021/08/11 11:13:00;;;;;;;3.58;2.80;;;22.50;63.10;;;;;;5113263;28;20173;-62
2021/08/11 11:15:52;;;;;;;3.33;2.60;;;22.40;63.20;;;;;;5094482;28;20189;-61
2021/08/11 11:18:22;;;;;;;6.55;2.70;;;22.40;63.40;;;;;;5112544;28;20184;-62
2021/08/11 11:20:48;;;;;;;5.43;2.75;;;22.50;63.30;;;;;;5112562;28;20214;-62
2021/08/11 11:23:40;;;;;;;4.43;2.67;;;22.50;63.00;;;;;;5112118;28;20181;-61
2021/08/11 11:26:08;;;;;;;2.88;2.60;;;22.60;63.00;;;;;;5103647;28;20343;-60
2021/08/11 11:29:03;;;;;;;3.47;2.58;;;22.60;62.90;;;;;;5112462;28;20256;-60
2021/08/11 11:31:29;;;;;;;5.15;2.83;;;22.60;62.80;;;;;;5111470;28;20180;-60
2021/08/11 11:34:21;;;;;;;4.50;3.15;;;22.60;62.80;;;;;;5112582;28;20640;-60
2021/08/11 11:36:56;;;;;;;4.10;2.35;;;22.60;62.70;;;;;;5111904;28;20260;-60
2021/08/11 11:39:25;;;;;;;5.13;2.90;;;22.60;62.60;;;;;;5112419;28;20169;-60
2021/08/11 11:42:06;;;;;;;3.58;2.78;;;22.70;63.50;;;;;;5094042;28;20185;-59
2021/08/11 11:44:59;;;;;;;5.05;2.75;;;22.70;62.60;;;;;;5111793;28;20169;-60
2021/08/11 11:47:44;;;;;;;4.03;2.67;;;22.60;62.60;;;;;;5112126;28;20177;-60
2021/08/11 11:50:29;;;;;;;3.13;2.33;;;22.60;62.90;;;;;;5112228;28;20229;-63
2021/08/11 11:52:58;;;;;;;3.20;2.67;;;22.60;62.70;;;;;;5111922;28;20555;-60
2021/08/11 11:55:30;;;;;;;4.55;3.08;;;22.70;62.60;;;;;;5112301;28;20173;-60
2021/08/11 11:57:56;;;;;;;3.05;2.75;;;22.70;62.60;;;;;;5111457;28;20623;-59
2021/08/11 12:00:22;;;;;;;3.00;2.70;;;22.70;62.50;;;;;;5112000;28;20514;-59
2021/08/11 12:02:51;;;;;;;3.97;2.80;;;22.70;62.40;;;;;;5112194;28;20169;-59
2021/08/11 12:05:17;;;;;;;4.85;2.80;;;22.60;62.40;;;;;;5112916;27;20187;-59
2021/08/11 12:07:42;;;;;;;4.65;2.78;;;22.60;62.60;;;;;;5119795;27;20173;-60
2021/08/11 12:10:08;;;;;;;2.90;2.70;;;22.60;62.70;;;;;;5121394;27;20675;-58
2021/08/11 12:12:33;;;;;;;5.30;2.95;;;22.70;62.50;;;;;;5111140;28;20230;-59
2021/08/11 12:15:19;;;;;;;3.83;2.60;;;22.70;62.40;;;;;;5110217;27;20229;-59
2021/08/11 12:17:44;;;;;;;2.90;2.60;;;22.60;62.50;;;;;;5132772;27;20211;-59
2021/08/11 12:20:36;;;;;;;2.75;2.45;;;22.70;62.40;;;;;;5132165;27;20200;-58
2021/08/11 12:23:15;;;;;;;2.92;2.40;;;22.70;62.40;;;;;;5116471;28;20265;-58
2021/08/11 12:25:40;;;;;;;2.92;2.67;;;22.60;62.60;;;;;;5112024;28;20181;-59
2021/08/11 12:28:09;;;;;;;2.70;2.50;;;22.50;62.70;;;;;;5111597;28;20176;-59
2021/08/11 12:30:40;;;;;;;2.63;2.42;;;22.50;62.90;;;;;;5111868;28;20646;-59
2021/08/11 12:33:05;;;;;;;2.90;2.65;;;22.40;63.10;;;;;;5111324;28;20631;-59
2021/08/11 12:35:31;;;;;;;2.97;2.67;;;22.40;63.20;;;;;;5093314;28;20188;-59
2021/08/11 12:37:57;;;;;;;2.60;2.40;;;22.40;63.30;;;;;;5093788;28;20643;-59
2021/08/11 12:40:32;;;;;;;2.60;2.40;;;22.30;63.20;;;;;;5125411;28;20177;-59
2021/08/11 12:42:58;;;;;;;3.08;2.50;;;22.40;63.30;;;;;;5132623;28;20247;-59
2021/08/11 12:45:23;;;;;;;2.88;2.63;;;22.40;63.20;;;;;;5132037;28;20623;-59
2021/08/11 12:47:49;;;;;;;3.55;2.80;;;22.50;63.10;;;;;;5113540;28;20187;-60
2021/08/11 12:50:19;;;;;;;3.30;2.40;;;22.50;63.10;;;;;;5113903;28;20224;-61